createdAt,value
2023-02-03T00:02:13.654Z,67
2023-02-03T00:04:43.877Z,67
2023-02-03T00:07:14.794Z,67
2023-02-03T00:09:44.913Z,67
2023-02-03T00:12:15.112Z,67
2023-02-03T00:14:45.353Z,67
2023-02-03T00:17:16.759Z,67
2023-02-03T00:19:47.132Z,67
2023-02-03T00:22:17.273Z,67
2023-02-03T00:24:47.602Z,67
2023-02-03T00:27:17.946Z,67
2023-02-03T00:29:48.173Z,67
2023-02-03T00:32:18.472Z,67
2023-02-03T00:34:48.688Z,67
2023-02-03T00:37:18.847Z,67
2023-02-03T00:39:49.121Z,67
2023-02-03T00:42:19.561Z,67
2023-02-03T00:44:49.720Z,68
2023-02-03T00:47:20.533Z,68
2023-02-03T00:49:50.290Z,68
2023-02-03T00:52:20.643Z,68
2023-02-03T00:54:50.995Z,69
2023-02-03T00:57:21.293Z,69
2023-02-03T00:59:51.468Z,69
2023-02-03T01:02:21.580Z,69
2023-02-03T01:04:51.805Z,69
2023-02-03T01:07:22.168Z,69
2023-02-03T01:09:52.432Z,69
2023-02-03T01:12:22.622Z,69
2023-02-03T01:14:52.964Z,69
2023-02-03T01:17:23.252Z,69
2023-02-03T01:19:53.585Z,69
2023-02-03T01:22:23.994Z,69
2023-02-03T01:24:54.213Z,69
2023-02-03T01:27:24.393Z,69
2023-02-03T01:29:54.657Z,69
2023-02-03T01:32:25.154Z,69
2023-02-03T01:34:55.081Z,70
2023-02-03T01:37:25.466Z,70
2023-02-03T01:39:55.761Z,70
2023-02-03T01:42:26.066Z,70
2023-02-03T01:44:56.104Z,70
2023-02-03T01:47:26.111Z,70
2023-02-03T01:49:56.505Z,70
2023-02-03T01:52:28.654Z,70
2023-02-03T01:54:58.838Z,70
2023-02-03T01:57:29.023Z,70
2023-02-03T01:59:59.846Z,70
2023-02-03T02:02:29.987Z,70
2023-02-03T02:05:00.087Z,70
2023-02-03T02:07:30.277Z,70
2023-02-03T02:10:00.571Z,70
2023-02-03T02:12:30.874Z,70
2023-02-03T02:15:01.128Z,70
2023-02-03T02:17:31.469Z,70
2023-02-03T02:20:01.878Z,70
2023-02-03T02:22:32.032Z,71
2023-02-03T02:25:02.211Z,70
2023-02-03T02:27:32.301Z,71
2023-02-03T02:30:02.501Z,71
2023-02-03T02:32:32.739Z,71
2023-02-03T02:35:03.089Z,71
2023-02-03T02:37:33.301Z,70
2023-02-03T02:40:03.559Z,71
2023-02-03T02:42:33.709Z,71
2023-02-03T02:45:03.932Z,71
2023-02-03T02:47:34.231Z,70
2023-02-03T02:50:05.028Z,71
2023-02-03T02:52:35.766Z,71
2023-02-03T02:55:05.571Z,70
2023-02-03T02:57:35.613Z,71
2023-02-03T03:00:05.965Z,71
2023-02-03T03:02:35.995Z,71
2023-02-03T03:05:06.417Z,71
2023-02-03T03:07:36.457Z,71
2023-02-03T03:10:06.623Z,71
2023-02-03T03:12:36.861Z,71
2023-02-03T03:15:07.244Z,71
2023-02-03T03:17:37.522Z,71
2023-02-03T03:20:07.770Z,71
2023-02-03T03:22:38.121Z,71
2023-02-03T03:25:08.411Z,71
2023-02-03T03:27:38.778Z,71
2023-02-03T03:30:09.111Z,71
2023-02-03T03:32:39.134Z,71
2023-02-03T03:35:09.496Z,71
2023-02-03T03:37:39.719Z,71
2023-02-03T03:40:09.999Z,71
2023-02-03T03:42:40.006Z,71
2023-02-03T03:45:10.211Z,71
2023-02-03T03:47:40.493Z,71
2023-02-03T03:50:10.787Z,71
2023-02-03T03:52:41.105Z,71
2023-02-03T03:55:11.298Z,71
2023-02-03T03:57:41.554Z,71
2023-02-03T04:00:11.733Z,71
2023-02-03T04:02:42.157Z,71
2023-02-03T04:05:12.144Z,71
2023-02-03T04:07:42.303Z,71
2023-02-03T04:10:12.465Z,71
2023-02-03T04:12:42.799Z,71
2023-02-03T04:15:13.129Z,71
2023-02-03T04:17:43.426Z,71
2023-02-03T04:20:13.727Z,71
2023-02-03T04:22:43.666Z,71
2023-02-03T04:25:13.749Z,71
2023-02-03T04:27:43.976Z,71
2023-02-03T04:30:14.273Z,71
2023-02-03T04:32:44.520Z,71
2023-02-03T04:35:14.879Z,72
2023-02-03T04:37:45.167Z,72
2023-02-03T04:40:15.597Z,72
2023-02-03T04:42:45.897Z,71
2023-02-03T04:45:16.043Z,71
2023-02-03T04:47:46.287Z,71
2023-02-03T04:50:16.383Z,71
2023-02-03T04:52:46.499Z,71
2023-02-03T04:55:17.072Z,71
2023-02-03T04:57:47.396Z,71
2023-02-03T05:00:17.708Z,71
2023-02-03T05:02:47.802Z,71
2023-02-03T05:05:17.912Z,71
2023-02-03T05:07:48.192Z,71
2023-02-03T05:10:18.463Z,71
2023-02-03T05:12:48.552Z,71
2023-02-03T05:15:18.597Z,71
2023-02-03T05:17:49.015Z,71
2023-02-03T05:20:19.256Z,71
2023-02-03T05:22:49.327Z,71
2023-02-03T05:25:19.549Z,71
2023-02-03T05:27:49.871Z,72
2023-02-03T05:30:20.244Z,71
2023-02-03T05:32:50.549Z,71
2023-02-03T05:35:20.795Z,71
2023-02-03T05:37:50.951Z,71
2023-02-03T05:40:21.221Z,71
2023-02-03T05:42:51.275Z,71
2023-02-03T05:45:21.458Z,72
2023-02-03T05:47:51.656Z,71
2023-02-03T05:50:22.050Z,71
2023-02-03T05:52:52.206Z,71
2023-02-03T05:55:22.608Z,71
2023-02-03T05:57:52.823Z,71
2023-02-03T06:00:23.106Z,71
2023-02-03T06:02:53.129Z,71
2023-02-03T06:05:23.326Z,72
2023-02-03T06:07:53.651Z,72
2023-02-03T06:10:23.832Z,72
2023-02-03T06:12:54.156Z,72
2023-02-03T06:15:24.453Z,72
2023-02-03T06:17:54.505Z,72
2023-02-03T06:20:24.803Z,72
2023-02-03T06:22:55.050Z,71
2023-02-03T06:25:25.336Z,71
2023-02-03T06:27:55.756Z,71
2023-02-03T06:30:26.232Z,71
2023-02-03T06:32:56.401Z,71
2023-02-03T06:35:26.712Z,71
2023-02-03T06:37:57.021Z,71
2023-02-03T06:40:27.578Z,71
2023-02-03T06:42:57.579Z,70
2023-02-03T06:45:27.835Z,70
2023-02-03T06:47:58.189Z,70
2023-02-03T06:50:29.021Z,70
2023-02-03T06:52:59.011Z,70
2023-02-03T06:55:28.941Z,70
2023-02-03T06:57:59.082Z,70
2023-02-03T07:00:32.621Z,69
2023-02-03T07:03:01.445Z,69
2023-02-03T07:05:32.784Z,69
2023-02-03T07:08:03.865Z,69
2023-02-03T07:10:32.112Z,69
2023-02-03T07:13:02.502Z,68
2023-02-03T07:15:32.577Z,68
2023-02-03T07:18:02.722Z,68
2023-02-03T07:20:32.574Z,68
2023-02-03T07:23:02.767Z,68
2023-02-03T07:25:32.941Z,68
2023-02-03T07:28:03.336Z,68
2023-02-03T07:30:33.515Z,68
2023-02-03T07:33:03.776Z,68
2023-02-03T07:35:34.042Z,67
2023-02-03T07:38:04.280Z,67
2023-02-03T07:40:35.713Z,67
2023-02-03T07:43:05.991Z,67
2023-02-03T07:45:36.258Z,67
2023-02-03T07:48:06.752Z,66
2023-02-03T07:50:36.916Z,67
2023-02-03T07:53:07.341Z,67
2023-02-03T07:55:37.603Z,66
2023-02-03T07:58:08.053Z,66
2023-02-03T08:00:38.296Z,66
2023-02-03T08:03:08.447Z,66
2023-02-03T08:05:44.367Z,65
2023-02-03T08:08:16.120Z,65
2023-02-03T08:10:51.463Z,64
2023-02-03T08:13:22.071Z,64
2023-02-03T08:15:52.502Z,64
2023-02-03T08:18:22.624Z,63
2023-02-03T08:20:52.919Z,63
2023-02-03T08:23:23.309Z,63
2023-02-03T08:25:53.471Z,63
2023-02-03T08:28:23.761Z,63
2023-02-03T08:30:54.118Z,63
2023-02-03T08:33:24.155Z,63
2023-02-03T08:35:54.291Z,63
2023-02-03T08:38:24.539Z,62
2023-02-03T08:40:54.911Z,62
2023-02-03T08:43:25.281Z,62
2023-02-03T08:45:55.637Z,62
2023-02-03T08:48:26.509Z,62
2023-02-03T08:50:56.767Z,61
2023-02-03T08:53:27.425Z,61
2023-02-03T08:55:57.768Z,61
2023-02-03T08:58:28.780Z,61
2023-02-03T09:00:59.770Z,60
2023-02-03T09:03:30.036Z,60
2023-02-03T09:06:00.890Z,60
2023-02-03T09:08:31.826Z,60
2023-02-03T09:11:02.086Z,59
2023-02-03T09:13:32.286Z,59
2023-02-03T09:16:02.564Z,59
2023-02-03T09:18:32.922Z,59
2023-02-03T09:21:03.899Z,59
2023-02-03T09:23:34.146Z,59
2023-02-03T09:26:04.367Z,59
2023-02-03T09:28:34.485Z,59
2023-02-03T09:31:04.905Z,59
2023-02-03T09:33:35.214Z,59
2023-02-03T09:36:06.146Z,59
2023-02-03T09:38:36.587Z,58
2023-02-03T09:41:11.523Z,58
2023-02-03T09:43:37.385Z,58
2023-02-03T09:46:07.698Z,58
2023-02-03T09:48:37.903Z,58
2023-02-03T09:51:08.341Z,58
2023-02-03T09:53:39.123Z,57
2023-02-03T09:56:09.724Z,57
2023-02-03T09:58:40.218Z,57
2023-02-03T10:01:10.047Z,56
2023-02-03T10:03:40.411Z,56
2023-02-03T10:06:10.767Z,56
2023-02-03T10:08:40.618Z,56
2023-02-03T10:11:11.372Z,55
2023-02-03T10:13:41.467Z,55
2023-02-03T10:16:11.760Z,55
2023-02-03T10:18:42.123Z,54
2023-02-03T10:21:12.436Z,53
2023-02-03T10:23:43.347Z,53
2023-02-03T10:26:13.558Z,54
2023-02-03T10:28:43.616Z,54
2023-02-03T10:31:13.766Z,53
2023-02-03T10:33:44.030Z,53
2023-02-03T10:36:14.256Z,53
2023-02-03T10:38:44.647Z,52
2023-02-03T10:41:15.118Z,52
2023-02-03T10:43:45.284Z,54
2023-02-03T10:46:15.330Z,53
2023-02-03T10:48:46.441Z,52
2023-02-03T10:51:16.316Z,52
2023-02-03T10:53:46.685Z,52
2023-02-03T10:56:16.901Z,53
2023-02-03T10:58:47.290Z,52
2023-02-03T11:01:17.489Z,52
2023-02-03T11:03:48.255Z,53
2023-02-03T11:06:18.643Z,52
2023-02-03T11:08:49.603Z,53
2023-02-03T11:11:19.729Z,52
2023-02-03T11:13:51.014Z,52
2023-02-03T11:16:21.295Z,52
2023-02-03T11:18:51.510Z,52
2023-02-03T11:21:21.726Z,52
2023-02-03T11:23:52.094Z,53
2023-02-03T11:26:23.080Z,51
2023-02-03T11:28:53.875Z,52
2023-02-03T11:31:23.918Z,51
2023-02-03T11:33:54.409Z,52
2023-02-03T11:36:25.290Z,51
2023-02-03T11:38:55.556Z,51
2023-02-03T11:41:26.149Z,51
2023-02-03T11:43:56.149Z,51
2023-02-03T11:46:26.662Z,52
2023-02-03T11:48:56.865Z,51
2023-02-03T11:51:27.807Z,52
2023-02-03T11:53:58.186Z,52
2023-02-03T11:56:28.935Z,52
2023-02-03T11:58:59.288Z,52
2023-02-03T12:01:29.716Z,52
2023-02-03T12:04:00.139Z,53
2023-02-03T12:06:31.313Z,52
2023-02-03T12:09:01.581Z,51
2023-02-03T12:11:31.660Z,50
2023-02-03T12:14:01.917Z,50
2023-02-03T12:16:32.438Z,50
2023-02-03T12:19:10.369Z,50
2023-02-03T12:21:41.159Z,50
2023-02-03T12:24:10.924Z,49
2023-02-03T12:26:41.655Z,49
2023-02-03T12:29:11.415Z,49
2023-02-03T12:31:41.987Z,49
2023-02-03T12:34:12.207Z,49
2023-02-03T12:36:43.173Z,49
2023-02-03T12:39:13.338Z,49
2023-02-03T12:41:43.271Z,49
2023-02-03T12:44:12.440Z,49
2023-02-03T12:46:42.365Z,49
2023-02-03T12:49:12.574Z,49
2023-02-03T12:51:42.919Z,50
2023-02-03T12:54:16.160Z,50
2023-02-03T12:56:47.024Z,50
2023-02-03T12:59:17.299Z,50
2023-02-03T13:01:47.874Z,50
2023-02-03T13:04:18.154Z,50
2023-02-03T13:06:48.279Z,50
2023-02-03T13:09:18.497Z,49
2023-02-03T13:11:48.415Z,50
2023-02-03T13:14:18.850Z,50
2023-02-03T13:16:49.199Z,49
2023-02-03T13:19:19.979Z,50
2023-02-03T13:21:50.285Z,49
2023-02-03T13:24:21.549Z,49
2023-02-03T13:26:51.546Z,50
2023-02-03T13:29:22.032Z,50
2023-02-03T13:31:52.500Z,50
2023-02-03T13:34:22.712Z,51
2023-02-03T13:36:52.960Z,50
2023-02-03T13:39:23.662Z,51
2023-02-03T13:41:53.641Z,50
2023-02-03T13:44:23.836Z,50
2023-02-03T13:46:53.825Z,50
2023-02-03T13:49:23.956Z,51
2023-02-03T13:51:54.912Z,51
2023-02-03T13:54:24.824Z,52
2023-02-03T13:56:55.031Z,51
2023-02-03T13:59:25.242Z,51
2023-02-03T14:01:56.213Z,51
2023-02-03T14:04:26.631Z,52
2023-02-03T14:06:57.482Z,52
2023-02-03T14:09:27.141Z,52
2023-02-03T14:11:57.422Z,52
2023-02-03T14:14:28.418Z,52
2023-02-03T14:16:58.800Z,52
2023-02-03T14:19:28.950Z,52
2023-02-03T14:21:59.477Z,52
2023-02-03T14:24:29.668Z,53
2023-02-03T14:26:59.973Z,53
2023-02-03T14:29:31.120Z,53
2023-02-03T14:32:01.500Z,53
2023-02-03T14:34:31.600Z,54
2023-02-03T14:37:01.418Z,53
2023-02-03T14:39:31.800Z,53
2023-02-03T14:42:01.984Z,53
2023-02-03T14:44:32.984Z,54
2023-02-03T14:47:03.081Z,54
2023-02-03T14:49:33.273Z,53
2023-02-03T14:52:03.634Z,53
2023-02-03T14:54:33.863Z,53
2023-02-03T14:57:04.188Z,53
2023-02-03T14:59:34.581Z,54
2023-02-03T15:02:04.868Z,54
2023-02-03T15:04:35.167Z,54
2023-02-03T15:07:05.476Z,53
2023-02-03T15:09:35.854Z,53
2023-02-03T15:12:06.139Z,54
2023-02-03T15:14:36.556Z,53
2023-02-03T15:17:06.972Z,53
2023-02-03T15:19:38.110Z,53
2023-02-03T15:22:09.070Z,54
2023-02-03T15:24:39.343Z,54
2023-02-03T15:27:10.413Z,55
2023-02-03T15:29:40.708Z,55
2023-02-03T15:32:11.135Z,55
2023-02-03T15:34:41.417Z,55
2023-02-03T15:37:12.352Z,55
2023-02-03T15:39:42.685Z,55
2023-02-03T15:42:13.572Z,55
2023-02-03T15:44:43.855Z,55
2023-02-03T15:47:14.247Z,54
2023-02-03T15:49:44.785Z,55
2023-02-03T15:52:15.763Z,54
2023-02-03T15:54:46.519Z,54
2023-02-03T15:57:16.758Z,54
2023-02-03T15:59:47.102Z,55
2023-02-03T16:02:17.613Z,56
2023-02-03T16:04:47.766Z,56
2023-02-03T16:07:18.704Z,55
2023-02-03T16:09:49.095Z,55
2023-02-03T16:12:19.966Z,56
2023-02-03T16:14:50.193Z,55
2023-02-03T16:17:20.406Z,56
2023-02-03T16:19:50.757Z,55
2023-02-03T16:22:21.784Z,56
2023-02-03T16:24:52.062Z,57
2023-02-03T16:27:23.034Z,55
2023-02-03T16:29:53.322Z,55
2023-02-03T16:32:24.104Z,54
2023-02-03T16:34:54.311Z,54
2023-02-03T16:37:24.679Z,54
2023-02-03T16:39:55.517Z,54
2023-02-03T16:42:25.730Z,54
2023-02-03T16:44:56.576Z,55
2023-02-03T16:47:26.800Z,55
2023-02-03T16:49:57.820Z,55
2023-02-03T16:52:28.096Z,55
2023-02-03T16:54:59.295Z,54
2023-02-03T16:57:29.349Z,54
2023-02-03T17:00:00.287Z,54
2023-02-03T17:02:30.586Z,54
2023-02-03T17:05:00.793Z,54
2023-02-03T17:07:31.107Z,54
2023-02-03T17:10:01.276Z,55
2023-02-03T17:12:31.348Z,54
2023-02-03T17:15:01.647Z,55
2023-02-03T17:17:32.043Z,55
2023-02-03T17:20:02.953Z,55
2023-02-03T17:22:33.413Z,56
2023-02-03T17:25:03.275Z,54
2023-02-03T17:27:33.372Z,54
2023-02-03T17:30:03.646Z,55
2023-02-03T17:32:34.063Z,54
2023-02-03T17:35:04.317Z,54
2023-02-03T17:37:35.306Z,55
2023-02-03T17:55:24.391Z,54
2023-02-03T17:57:55.198Z,53
2023-02-03T18:00:25.382Z,53
2023-02-03T18:02:56.952Z,53
2023-02-03T18:05:26.106Z,54
2023-02-03T18:07:57.879Z,54
2023-02-03T18:10:27.685Z,54
2023-02-03T18:12:57.864Z,55
2023-02-03T18:15:27.302Z,55
2023-02-03T18:17:58.154Z,54
2023-02-03T18:20:28.775Z,55
2023-02-03T18:23:05.767Z,55
2023-02-03T18:25:35.903Z,55
2023-02-03T18:28:06.398Z,55
2023-02-03T18:30:36.904Z,55
2023-02-03T18:33:07.689Z,56
2023-02-03T18:35:45.743Z,55
2023-02-03T18:38:15.990Z,55
2023-02-03T18:40:50.201Z,55
2023-02-03T18:43:21.146Z,54
2023-02-03T18:45:59.008Z,55
2023-02-03T18:48:28.961Z,54
2023-02-03T18:51:06.763Z,52
2023-02-03T18:53:45.280Z,53
2023-02-03T18:56:20.337Z,53
2023-02-03T18:58:51.372Z,52
2023-02-03T19:01:21.626Z,52
2023-02-03T19:06:22.433Z,51
2023-02-03T19:08:52.319Z,51
2023-02-03T19:11:22.619Z,52
2023-02-03T19:13:52.613Z,53
2023-02-03T19:16:22.366Z,55
2023-02-03T19:18:53.212Z,56
2023-02-03T19:21:31.426Z,58
2023-02-03T19:24:06.177Z,59
2023-02-03T19:26:37.055Z,63
2023-02-03T19:29:07.855Z,64
2023-02-03T19:31:37.636Z,64
2023-02-03T19:34:08.315Z,66
2023-02-03T19:36:38.660Z,66
2023-02-03T19:41:58.437Z,68
2023-02-03T19:44:27.687Z,69
2023-02-03T19:47:05.731Z,70
2023-02-03T19:52:21.267Z,70
2023-02-03T19:57:39.973Z,71
2023-02-03T20:00:10.729Z,71
2023-02-03T20:02:40.838Z,72
2023-02-03T20:05:10.854Z,71
2023-02-03T20:07:40.827Z,72
2023-02-03T20:10:12.951Z,72
2023-02-03T20:15:31.617Z,73
2023-02-03T20:18:01.664Z,74
2023-02-03T20:20:32.166Z,73
2023-02-03T20:33:35.789Z,74
2023-02-03T20:36:05.888Z,73
2023-02-03T20:38:39.552Z,74
2023-02-03T20:41:08.954Z,75
2023-02-03T20:43:38.916Z,75
2023-02-03T20:46:08.864Z,75
2023-02-03T20:48:39.119Z,75
2023-02-03T20:51:09.442Z,75
2023-02-03T20:53:39.454Z,75
2023-02-03T20:56:11.979Z,75
2023-02-03T20:58:42.136Z,76
2023-02-03T21:01:12.879Z,76
2023-02-03T21:03:46.129Z,76
2023-02-03T21:06:28.854Z,77
2023-02-03T21:08:57.808Z,76
2023-02-03T21:11:28.498Z,77
2023-02-03T21:13:59.056Z,77
2023-02-03T21:16:30.699Z,77
2023-02-03T21:19:03.748Z,77
2023-02-03T21:21:36.037Z,77
2023-02-03T21:24:06.349Z,77
2023-02-03T21:26:36.665Z,77
2023-02-03T21:29:06.826Z,77
2023-02-03T21:31:37.487Z,77
2023-02-03T21:34:07.747Z,77
2023-02-03T21:36:38.474Z,77
2023-02-03T21:39:08.830Z,77
2023-02-03T21:41:40.666Z,78
2023-02-03T21:44:10.027Z,78
2023-02-03T21:46:41.108Z,78
2023-02-03T21:49:15.220Z,78
2023-02-03T21:51:45.156Z,78
2023-02-03T21:54:14.853Z,78
2023-02-03T21:56:47.854Z,78
2023-02-03T21:59:16.871Z,79
2023-02-03T22:01:47.130Z,79
2023-02-03T22:04:17.571Z,79
2023-02-03T22:06:47.811Z,79
2023-02-03T22:09:18.301Z,79
2023-02-03T22:11:48.627Z,78
2023-02-03T22:14:19.506Z,78
2023-02-03T22:16:49.666Z,78
2023-02-03T22:19:19.854Z,78
2023-02-03T22:21:50.033Z,78
2023-02-03T22:24:20.208Z,78
2023-02-03T22:26:50.952Z,78
2023-02-03T22:29:21.311Z,78
2023-02-03T22:31:51.833Z,78
2023-02-03T22:34:22.150Z,78
2023-02-03T22:36:53.020Z,78
2023-02-03T22:39:23.424Z,79
2023-02-03T22:41:58.747Z,79
2023-02-03T22:47:19.206Z,78
2023-02-03T22:49:48.915Z,77
2023-02-03T22:52:20.901Z,77
2023-02-03T22:57:38.420Z,78
2023-02-03T23:03:03.099Z,77
2023-02-03T23:05:35.053Z,77
2023-02-03T23:10:53.650Z,77
2023-02-03T23:13:45.591Z,77
2023-02-03T23:16:27.279Z,77
2023-02-03T23:19:22.317Z,77
2023-02-03T23:21:50.342Z,77
2023-02-03T23:24:19.496Z,77
2023-02-03T23:26:49.659Z,77
2023-02-03T23:29:26.302Z,78
2023-02-03T23:31:58.717Z,78
2023-02-03T23:34:32.902Z,77
2023-02-03T23:37:03.405Z,78
2023-02-03T23:39:33.512Z,77
2023-02-03T23:42:03.909Z,77
2023-02-03T23:44:34.373Z,77
2023-02-03T23:47:04.639Z,77
2023-02-03T23:49:36.333Z,77
2023-02-03T23:52:06.673Z,77
2023-02-03T23:54:37.220Z,77
2023-02-03T23:57:13.535Z,77
2023-02-03T23:59:43.299Z,78
